createdAt,value
2023-04-10T00:00:29.142Z,7.28
2023-04-10T00:02:56.086Z,7.93
2023-04-10T00:05:22.780Z,8.13
2023-04-10T00:07:49.458Z,7.57
2023-04-10T00:10:16.123Z,7.57
2023-04-10T00:12:42.877Z,8.68
2023-04-10T00:15:09.912Z,7.70
2023-04-10T00:17:36.573Z,8.90
2023-04-10T00:20:03.472Z,8.93
2023-04-10T00:22:30.060Z,8.65
2023-04-10T00:24:56.747Z,8.85
2023-04-10T00:27:23.441Z,9.13
2023-04-10T00:29:50.091Z,8.52
2023-04-10T00:32:16.933Z,8.50
2023-04-10T00:34:43.710Z,9.15
2023-04-10T00:37:10.311Z,9.25
2023-04-10T00:39:36.891Z,8.50
2023-04-10T00:42:03.492Z,7.95
2023-04-10T00:44:30.515Z,8.85
2023-04-10T00:46:57.166Z,7.53
2023-04-10T00:49:23.924Z,8.18
2023-04-10T00:51:50.663Z,7.03
2023-04-10T00:54:20.841Z,7.73
2023-04-10T00:56:48.492Z,7.75
2023-04-10T00:59:15.370Z,6.75
2023-04-10T01:01:43.441Z,7.25
2023-04-10T01:06:59.288Z,7.88
2023-04-10T01:09:44.510Z,7.63
2023-04-10T01:12:30.755Z,7.15
2023-04-10T01:15:09.406Z,7.57
2023-04-10T01:17:52.515Z,8.07
2023-04-10T01:20:26.829Z,8.20
2023-04-10T01:23:29.872Z,8.20
2023-04-10T01:26:04.987Z,7.68
2023-04-10T01:29:02.370Z,7.90
2023-04-10T01:31:53.622Z,8.57
2023-04-10T01:34:33.450Z,8.15
2023-04-10T01:37:02.279Z,7.93
2023-04-10T01:39:31.297Z,7.53
2023-04-10T01:42:00.724Z,7.88
2023-04-10T01:44:41.932Z,8.23
2023-04-10T01:47:08.962Z,8.05
2023-04-10T01:49:39.771Z,8.95
2023-04-10T01:52:07.146Z,9.65
2023-04-10T01:54:35.572Z,9.65
2023-04-10T01:57:04.369Z,7.70
2023-04-10T01:59:39.294Z,7.88
2023-04-10T02:02:06.121Z,8.73
2023-04-10T02:04:33.044Z,8.50
2023-04-10T02:07:14.242Z,11.07
2023-04-10T02:09:58.789Z,8.43
2023-04-10T02:12:39.576Z,10.00
2023-04-10T02:15:07.102Z,9.23
2023-04-10T02:17:35.772Z,9.55
2023-04-10T02:20:03.356Z,10.10
2023-04-10T02:22:30.676Z,8.30
2023-04-10T02:24:59.110Z,8.73
2023-04-10T02:27:35.904Z,8.20
2023-04-10T02:30:03.798Z,8.80
2023-04-10T02:32:33.031Z,10.25
2023-04-10T02:35:00.254Z,8.45
2023-04-10T02:37:26.970Z,9.80
2023-04-10T02:39:53.943Z,7.45
2023-04-10T02:42:23.319Z,8.30
2023-04-10T02:44:51.674Z,7.03
2023-04-10T02:47:18.353Z,7.82
2023-04-10T02:52:15.420Z,6.22
2023-04-10T02:54:42.014Z,6.55
2023-04-10T02:57:08.734Z,8.40
2023-04-10T02:59:35.842Z,7.93
2023-04-10T03:02:04.958Z,7.07
2023-04-10T03:04:35.098Z,7.13
2023-04-10T03:07:01.851Z,7.57
2023-04-10T03:09:28.496Z,8.18
2023-04-10T03:11:55.143Z,6.75
2023-04-10T03:14:21.776Z,6.65
2023-04-10T03:16:48.614Z,6.13
2023-04-10T03:19:15.258Z,7.55
2023-04-10T03:21:41.967Z,7.15
2023-04-10T03:24:08.635Z,5.72
2023-04-10T03:26:35.330Z,6.05
2023-04-10T03:29:02.083Z,6.07
2023-04-10T03:31:29.555Z,5.85
2023-04-10T03:33:58.955Z,6.63
2023-04-10T03:36:25.800Z,5.45
2023-04-10T03:41:20.220Z,4.90
2023-04-10T03:43:46.857Z,5.63
2023-04-10T03:46:13.561Z,5.22
2023-04-10T03:48:43.713Z,4.50
2023-04-10T03:51:10.520Z,5.30
2023-04-10T03:53:37.857Z,6.05
2023-04-10T03:56:08.820Z,5.47
2023-04-10T03:58:36.103Z,5.28
2023-04-10T04:01:02.899Z,5.45
2023-04-10T04:03:49.812Z,5.90
2023-04-10T04:06:45.816Z,5.72
2023-04-10T04:09:32.936Z,5.75
2023-04-10T04:12:19.156Z,4.40
2023-04-10T04:14:57.676Z,4.15
2023-04-10T04:17:37.929Z,5.38
2023-04-10T04:20:08.102Z,5.38
2023-04-10T04:22:57.666Z,5.18
2023-04-10T04:25:54.359Z,4.72
2023-04-10T04:28:40.972Z,6.07
2023-04-10T04:31:21.484Z,4.70
2023-04-10T04:34:14.244Z,5.57
2023-04-10T04:36:40.931Z,4.57
2023-04-10T04:39:25.799Z,5.07
2023-04-10T04:42:12.686Z,6.22
2023-04-10T04:44:51.082Z,4.85
2023-04-10T04:47:36.268Z,5.15
2023-04-10T04:50:21.635Z,5.18
2023-04-10T04:53:08.018Z,5.10
2023-04-10T04:55:53.191Z,4.85
2023-04-10T04:58:42.758Z,5.03
2023-04-10T05:01:13.632Z,5.97
2023-04-10T05:03:52.768Z,4.80
2023-04-10T05:06:36.162Z,4.43
2023-04-10T05:09:23.316Z,5.78
2023-04-10T05:12:02.072Z,5.60
2023-04-10T05:14:47.153Z,6.60
2023-04-10T05:17:32.323Z,5.90
2023-04-10T05:20:17.515Z,5.35
2023-04-10T05:23:10.290Z,4.88
2023-04-10T05:25:54.412Z,5.65
2023-04-10T05:28:37.239Z,4.78
2023-04-10T05:31:23.731Z,5.20
2023-04-10T05:33:56.304Z,5.60
2023-04-10T05:36:43.229Z,5.13
2023-04-10T05:39:20.480Z,5.05
2023-04-10T05:42:10.751Z,5.90
2023-04-10T05:44:53.648Z,4.80
2023-04-10T05:47:42.772Z,5.50
2023-04-10T05:50:38.769Z,5.47
2023-04-10T05:53:29.292Z,5.90
2023-04-10T05:56:23.889Z,6.90
2023-04-10T05:59:06.348Z,8.27
2023-04-10T06:01:46.166Z,7.93
2023-04-10T06:04:13.407Z,7.03
2023-04-10T06:06:40.587Z,7.13
2023-04-10T06:09:07.300Z,6.50
2023-04-10T06:11:34.298Z,6.05
2023-04-10T06:14:01.315Z,6.85
2023-04-10T06:16:37.829Z,6.82
2023-04-10T06:19:04.675Z,6.57
2023-04-10T06:21:31.274Z,7.47
2023-04-10T06:23:57.882Z,6.95
2023-04-10T06:26:25.098Z,7.18
2023-04-10T06:28:52.086Z,6.82
2023-04-10T06:31:20.454Z,9.45
2023-04-10T06:33:47.412Z,7.40
2023-04-10T06:36:14.176Z,5.85
2023-04-10T06:38:48.015Z,6.43
2023-04-10T06:41:14.662Z,5.88
2023-04-10T06:43:41.284Z,5.63
2023-04-10T06:46:07.980Z,5.93
2023-04-10T06:48:34.808Z,5.55
2023-04-10T06:51:01.554Z,5.45
2023-04-10T06:53:28.493Z,5.30
2023-04-10T06:55:55.294Z,5.60
2023-04-10T06:58:21.926Z,5.30
2023-04-10T07:00:48.664Z,6.13
2023-04-10T07:03:15.661Z,5.80
2023-04-10T07:05:42.534Z,4.68
2023-04-10T07:08:09.237Z,5.28
2023-04-10T07:10:35.925Z,5.13
2023-04-10T07:13:02.585Z,6.10
2023-04-10T07:15:29.148Z,5.40
2023-04-10T07:17:55.794Z,4.25
2023-04-10T07:20:22.509Z,5.68
2023-04-10T07:22:49.040Z,6.03
2023-04-10T07:25:15.730Z,6.43
2023-04-10T07:27:42.332Z,6.00
2023-04-10T07:30:10.149Z,5.40
2023-04-10T07:32:38.012Z,5.22
2023-04-10T07:35:05.054Z,5.28
2023-04-10T07:37:31.656Z,4.72
2023-04-10T07:39:58.229Z,4.50
2023-04-10T07:42:24.773Z,5.82
2023-04-10T07:44:51.388Z,5.05
2023-04-10T07:47:18.062Z,4.45
2023-04-10T07:49:44.612Z,4.88
2023-04-10T07:52:11.163Z,5.20
2023-04-10T07:54:37.728Z,4.88
2023-04-10T07:57:04.345Z,5.00
2023-04-10T07:59:30.939Z,5.22
2023-04-10T08:01:57.653Z,6.05
2023-04-10T08:04:24.632Z,6.43
2023-04-10T08:06:51.389Z,6.30
2023-04-10T08:09:18.130Z,5.88
2023-04-10T08:11:44.695Z,5.55
2023-04-10T08:14:11.405Z,5.32
2023-04-10T08:16:38.556Z,5.10
2023-04-10T08:19:05.462Z,5.87
2023-04-10T08:21:32.316Z,5.47
2023-04-10T08:24:05.161Z,5.10
2023-04-10T08:26:32.199Z,5.97
2023-04-10T08:28:59.986Z,5.68
2023-04-10T08:31:28.203Z,5.18
2023-04-10T08:33:55.463Z,5.25
2023-04-10T08:36:22.425Z,5.00
2023-04-10T08:38:49.194Z,5.43
2023-04-10T08:41:19.999Z,5.75
2023-04-10T08:43:47.170Z,5.88
2023-04-10T08:46:15.012Z,4.97
2023-04-10T08:51:20.719Z,3.75
2023-04-10T08:53:56.960Z,5.18
2023-04-10T08:56:24.729Z,5.53
2023-04-10T08:58:51.939Z,4.78
2023-04-10T09:01:21.286Z,6.10
2023-04-10T09:03:48.798Z,4.47
2023-04-10T09:06:15.580Z,5.03
2023-04-10T09:08:42.330Z,5.25
2023-04-10T09:11:08.991Z,4.88
2023-04-10T09:13:36.754Z,4.82
2023-04-10T09:16:03.696Z,5.18
2023-04-10T09:18:46.595Z,5.28
2023-04-10T09:21:16.190Z,5.15
2023-04-10T09:23:44.832Z,5.40
2023-04-10T09:26:24.008Z,6.13
2023-04-10T09:28:57.859Z,5.35
2023-04-10T09:31:31.734Z,4.90
2023-04-10T09:34:09.343Z,4.68
2023-04-10T09:36:36.331Z,5.55
2023-04-10T09:39:06.679Z,6.13
2023-04-10T09:41:33.856Z,5.60
2023-04-10T09:44:11.100Z,5.60
2023-04-10T09:46:38.072Z,5.57
2023-04-10T09:49:05.199Z,5.93
2023-04-10T09:51:33.365Z,6.10
2023-04-10T09:54:00.446Z,5.80
2023-04-10T09:56:28.571Z,5.72
2023-04-10T10:01:26.004Z,4.40
2023-04-10T10:03:55.050Z,4.90
2023-04-10T10:06:23.261Z,4.38
2023-04-10T10:11:24.838Z,3.78
2023-04-10T10:13:51.963Z,4.38
2023-04-10T10:16:39.655Z,4.78
2023-04-10T10:21:38.955Z,4.07
2023-04-10T10:24:09.026Z,4.82
2023-04-10T10:26:38.777Z,4.00
2023-04-10T10:29:07.889Z,3.92
2023-04-10T10:31:35.200Z,3.60
2023-04-10T10:34:02.012Z,4.57
2023-04-10T10:36:28.583Z,3.83
2023-04-10T10:39:25.682Z,3.65
2023-04-10T10:42:18.273Z,3.10
2023-04-10T10:44:56.087Z,3.05
2023-04-10T10:47:28.194Z,3.53
2023-04-10T10:49:57.222Z,3.65
2023-04-10T10:52:45.659Z,3.53
2023-04-10T10:55:28.213Z,3.72
2023-04-10T10:57:56.359Z,3.75
2023-04-10T11:00:27.107Z,3.67
2023-04-10T11:03:13.890Z,3.38
2023-04-10T11:06:03.600Z,3.53
2023-04-10T11:08:33.227Z,3.28
2023-04-10T11:11:05.674Z,3.50
2023-04-10T11:13:36.154Z,3.30
2023-04-10T11:16:04.400Z,3.35
2023-04-10T11:18:45.726Z,3.60
2023-04-10T11:21:13.135Z,3.17
2023-04-10T11:23:59.911Z,3.10
2023-04-10T11:26:35.253Z,3.40
2023-04-10T11:29:03.519Z,3.17
2023-04-10T11:31:30.829Z,2.58
2023-04-10T11:33:57.394Z,2.40
2023-04-10T11:36:24.513Z,3.05
2023-04-10T11:38:57.889Z,3.35
2023-04-10T11:41:35.354Z,2.70
2023-04-10T11:44:04.947Z,2.53
2023-04-10T11:46:32.274Z,2.90
2023-04-10T11:49:01.414Z,3.38
2023-04-10T11:51:28.318Z,2.85
2023-04-10T11:54:05.736Z,2.65
2023-04-10T11:56:32.362Z,2.47
2023-04-10T11:58:59.005Z,2.40
2023-04-10T12:01:25.807Z,3.45
2023-04-10T12:03:52.699Z,2.95
2023-04-10T12:06:19.731Z,2.65
2023-04-10T12:08:47.647Z,3.00
2023-04-10T12:11:14.302Z,2.90
2023-04-10T12:13:40.946Z,2.67
2023-04-10T12:16:08.846Z,2.63
2023-04-10T12:18:36.380Z,2.45
2023-04-10T12:21:05.544Z,1.98
2023-04-10T12:23:36.268Z,2.30
2023-04-10T12:26:09.983Z,2.45
2023-04-10T12:28:37.691Z,2.55
2023-04-10T12:31:04.932Z,2.65
2023-04-10T12:33:31.700Z,3.55
2023-04-10T12:35:58.583Z,2.75
2023-04-10T12:38:43.472Z,2.35
2023-04-10T12:41:11.992Z,2.28
2023-04-10T12:43:39.691Z,2.78
2023-04-10T12:46:08.009Z,2.45
2023-04-10T12:48:34.888Z,2.35
2023-04-10T12:51:02.370Z,2.40
2023-04-10T12:53:29.052Z,3.00
2023-04-10T12:56:06.320Z,3.53
2023-04-10T12:58:33.282Z,2.70
2023-04-10T13:01:05.062Z,2.40
2023-04-10T13:03:34.001Z,3.10
2023-04-10T13:06:00.843Z,2.70
2023-04-10T13:08:27.430Z,2.58
2023-04-10T13:10:53.998Z,2.60
2023-04-10T13:13:20.640Z,2.40
2023-04-10T13:15:47.286Z,1.63
2023-04-10T13:18:13.918Z,2.50
2023-04-10T13:20:41.450Z,1.90
2023-04-10T13:23:08.719Z,1.88
2023-04-10T13:25:38.390Z,2.50
2023-04-10T13:28:05.851Z,2.10
2023-04-10T13:30:32.488Z,2.30
2023-04-10T13:32:59.106Z,3.05
2023-04-10T13:35:25.877Z,2.83
2023-04-10T13:37:52.436Z,2.40
2023-04-10T13:40:19.141Z,3.28
2023-04-10T13:42:45.957Z,2.38
2023-04-10T13:45:12.583Z,2.20
2023-04-10T13:47:39.319Z,2.00
2023-04-10T13:50:06.594Z,2.38
2023-04-10T13:52:33.472Z,2.30
2023-04-10T13:55:00.792Z,2.40
2023-04-10T13:57:27.628Z,2.42
2023-04-10T13:59:54.244Z,2.50
2023-04-10T14:02:21.065Z,1.77
2023-04-10T14:04:47.942Z,2.22
2023-04-10T14:07:14.791Z,2.33
2023-04-10T14:09:41.390Z,2.30
2023-04-10T14:12:08.074Z,2.22
2023-04-10T14:14:34.661Z,2.20
2023-04-10T14:17:01.247Z,2.28
2023-04-10T14:19:27.991Z,2.38
2023-04-10T14:21:54.600Z,1.70
2023-04-10T14:24:21.168Z,2.45
2023-04-10T14:26:47.767Z,2.15
2023-04-10T14:29:16.239Z,1.70
2023-04-10T14:31:56.704Z,2.05
2023-04-10T14:34:24.423Z,2.08
2023-04-10T14:36:51.014Z,2.10
2023-04-10T14:39:17.676Z,2.05
2023-04-10T14:41:44.237Z,2.55
2023-04-10T14:44:10.868Z,2.13
2023-04-10T14:46:37.547Z,2.15
2023-04-10T14:49:04.288Z,2.17
2023-04-10T14:51:31.031Z,1.90
2023-04-10T14:53:57.697Z,2.10
2023-04-10T14:56:24.285Z,2.40
2023-04-10T14:58:50.860Z,2.25
2023-04-10T15:01:17.546Z,1.83
2023-04-10T15:03:47.739Z,1.75
2023-04-10T15:06:14.687Z,1.92
2023-04-10T15:08:41.452Z,2.00
2023-04-10T15:11:08.016Z,1.98
2023-04-10T15:13:34.753Z,2.15
2023-04-10T15:16:01.414Z,1.40
2023-04-10T15:18:28.095Z,2.05
2023-04-10T15:20:55.026Z,2.13
2023-04-10T15:23:21.966Z,2.22
2023-04-10T15:25:48.538Z,2.25
2023-04-10T15:28:15.125Z,2.05
2023-04-10T15:30:44.716Z,2.00
2023-04-10T15:33:11.435Z,2.28
2023-04-10T15:35:38.113Z,2.20
2023-04-10T15:38:05.719Z,2.03
2023-04-10T15:40:32.631Z,1.90
2023-04-10T15:42:59.464Z,1.70
2023-04-10T15:45:26.468Z,1.70
2023-04-10T15:47:53.192Z,2.00
2023-04-10T15:50:19.909Z,2.10
2023-04-10T15:52:46.537Z,1.55
2023-04-10T15:55:13.157Z,2.10
2023-04-10T15:57:39.771Z,1.83
2023-04-10T16:00:07.189Z,1.67
2023-04-10T16:02:34.065Z,1.70
2023-04-10T16:05:00.901Z,2.03
2023-04-10T16:07:27.634Z,1.70
2023-04-10T16:09:54.209Z,2.05
2023-04-10T16:12:20.845Z,3.20
2023-04-10T16:14:47.487Z,2.28
2023-04-10T16:17:14.097Z,2.30
2023-04-10T16:19:40.690Z,2.17
2023-04-10T16:22:07.268Z,2.08
2023-04-10T16:24:33.832Z,1.95
2023-04-10T16:27:00.385Z,2.03
2023-04-10T16:29:26.934Z,1.77
2023-04-10T16:31:53.646Z,1.85
2023-04-10T16:34:20.532Z,2.38
2023-04-10T16:36:47.089Z,2.17
2023-04-10T16:39:13.746Z,1.75
2023-04-10T16:41:40.317Z,1.55
2023-04-10T16:44:07.103Z,1.70
2023-04-10T16:46:33.690Z,1.80
2023-04-10T16:49:00.515Z,1.52
2023-04-10T16:51:27.134Z,1.33
2023-04-10T16:53:53.841Z,2.08
2023-04-10T16:56:20.459Z,1.60
2023-04-10T16:58:47.020Z,1.60
2023-04-10T17:01:19.059Z,1.48
2023-04-10T17:03:46.790Z,1.75
2023-04-10T17:06:14.403Z,2.00
2023-04-10T17:08:41.045Z,1.45
2023-04-10T17:11:07.723Z,1.60
2023-04-10T17:13:34.305Z,1.38
2023-04-10T17:16:00.973Z,1.40
2023-04-10T17:18:27.511Z,1.63
2023-04-10T17:20:54.052Z,1.60
2023-04-10T17:23:20.722Z,1.50
2023-04-10T17:25:47.339Z,1.45
2023-04-10T17:28:14.039Z,1.88
2023-04-10T17:30:41.026Z,2.08
2023-04-10T17:33:07.751Z,1.50
2023-04-10T17:35:34.418Z,1.80
2023-04-10T17:38:01.050Z,1.58
2023-04-10T17:40:27.596Z,1.75
2023-04-10T17:42:54.173Z,2.28
2023-04-10T17:45:20.840Z,1.77
2023-04-10T17:47:47.480Z,1.88
2023-04-10T17:50:14.186Z,1.25
2023-04-10T17:52:40.824Z,1.70
2023-04-10T17:55:07.858Z,1.60
2023-04-10T17:57:34.425Z,1.38
2023-04-10T18:00:01.094Z,1.70
2023-04-10T18:02:27.772Z,1.33
2023-04-10T18:04:54.729Z,1.80
2023-04-10T18:07:21.297Z,1.90
2023-04-10T18:09:47.877Z,1.63
2023-04-10T18:12:14.503Z,1.80
2023-04-10T18:14:41.044Z,1.60
2023-04-10T18:17:07.679Z,1.80
2023-04-10T18:19:34.606Z,1.67
2023-04-10T18:22:01.236Z,1.90
2023-04-10T18:24:27.860Z,2.40
2023-04-10T18:26:54.478Z,4.25
2023-04-10T18:29:21.127Z,5.63
2023-04-10T18:31:47.679Z,4.47
2023-04-10T18:34:14.539Z,4.40
2023-04-10T18:36:41.414Z,3.72
2023-04-10T18:39:08.008Z,2.72
2023-04-10T18:41:34.591Z,2.67
2023-04-10T18:44:04.903Z,2.70
2023-04-10T18:46:33.320Z,2.78
2023-04-10T18:49:00.286Z,2.83
2023-04-10T18:51:26.933Z,2.78
2023-04-10T18:53:53.707Z,2.75
2023-04-10T18:56:20.532Z,3.90
2023-04-10T18:58:49.631Z,2.80
2023-04-10T19:01:17.049Z,3.03
2023-04-10T19:03:43.957Z,3.03
2023-04-10T19:06:10.819Z,2.90
2023-04-10T19:08:37.653Z,3.42
2023-04-10T19:11:06.097Z,2.65
2023-04-10T19:13:33.209Z,3.50
2023-04-10T19:16:03.221Z,3.10
2023-04-10T19:18:30.062Z,2.92
2023-04-10T19:20:56.759Z,2.53
2023-04-10T19:23:26.607Z,3.05
2023-04-10T19:25:54.163Z,2.33
2023-04-10T19:28:21.427Z,3.00
2023-04-10T19:30:48.025Z,2.50
2023-04-10T19:33:14.672Z,3.28
2023-04-10T19:35:41.480Z,2.85
2023-04-10T19:38:08.222Z,3.00
2023-04-10T19:40:36.200Z,2.17
2023-04-10T19:43:03.148Z,2.70
2023-04-10T19:45:29.918Z,2.83
2023-04-10T19:47:57.065Z,2.92
2023-04-10T19:50:23.919Z,3.30
2023-04-10T19:52:51.993Z,3.22
2023-04-10T19:57:46.180Z,3.05
2023-04-10T20:00:13.331Z,3.65
2023-04-10T20:02:40.508Z,3.28
2023-04-10T20:05:07.864Z,3.30
2023-04-10T20:07:35.090Z,3.30
2023-04-10T20:10:02.376Z,3.53
2023-04-10T20:12:32.236Z,3.03
2023-04-10T20:15:00.378Z,3.00
2023-04-10T20:19:54.220Z,3.05
2023-04-10T20:22:20.890Z,2.80
2023-04-10T20:24:47.446Z,3.33
2023-04-10T20:27:16.863Z,2.58
2023-04-10T20:29:43.534Z,2.88
2023-04-10T20:32:10.214Z,2.67
2023-04-10T20:34:37.198Z,2.70
2023-04-10T20:37:04.474Z,2.38
2023-04-10T20:39:34.776Z,3.03
2023-04-10T20:42:01.524Z,2.83
2023-04-10T20:44:28.218Z,2.67
2023-04-10T20:46:54.901Z,2.88
2023-04-10T20:49:21.499Z,2.47
2023-04-10T20:51:48.143Z,3.15
2023-04-10T20:54:14.778Z,3.13
2023-04-10T20:56:43.726Z,2.67
2023-04-10T20:59:10.788Z,2.97
2023-04-10T21:01:37.498Z,3.30
2023-04-10T21:04:04.481Z,3.08
2023-04-10T21:06:34.210Z,2.97
2023-04-10T21:09:03.518Z,3.10
2023-04-10T21:11:30.086Z,3.10
2023-04-10T21:13:56.774Z,2.38
2023-04-10T21:16:23.366Z,2.67
2023-04-10T21:18:50.049Z,2.75
2023-04-10T21:21:16.698Z,2.88
2023-04-10T21:23:43.297Z,3.67
2023-04-10T21:26:10.320Z,4.03
2023-04-10T21:28:36.913Z,2.92
2023-04-10T21:31:03.548Z,2.75
2023-04-10T21:33:31.533Z,2.60
2023-04-10T21:35:58.362Z,2.65
2023-04-10T21:38:24.989Z,3.20
2023-04-10T21:40:52.332Z,3.00
2023-04-10T21:43:19.930Z,2.50
2023-04-10T21:45:46.665Z,3.40
2023-04-10T21:48:13.612Z,2.95
2023-04-10T21:50:40.731Z,2.90
2023-04-10T21:53:07.636Z,2.90
2023-04-10T21:55:34.342Z,2.83
2023-04-10T21:58:00.947Z,2.88
2023-04-10T22:00:27.562Z,2.72
2023-04-10T22:02:54.304Z,2.22
2023-04-10T22:05:21.236Z,2.85
2023-04-10T22:07:47.867Z,2.90
2023-04-10T22:10:14.424Z,4.07
2023-04-10T22:12:40.981Z,3.13
2023-04-10T22:15:08.126Z,2.70
2023-04-10T22:17:34.801Z,2.65
2023-04-10T22:20:02.110Z,3.22
2023-04-10T22:22:28.811Z,3.65
2023-04-10T22:24:55.417Z,2.75
2023-04-10T22:27:23.733Z,3.17
2023-04-10T22:30:01.990Z,3.22
2023-04-10T22:32:29.631Z,3.58
2023-04-10T22:34:56.341Z,2.45
2023-04-10T22:37:23.065Z,3.15
2023-04-10T22:39:49.602Z,2.42
2023-04-10T22:42:16.254Z,2.70
2023-04-10T22:44:44.755Z,3.72
2023-04-10T22:47:11.357Z,3.17
2023-04-10T22:49:38.033Z,3.47
2023-04-10T22:52:04.801Z,3.00
2023-04-10T22:54:31.472Z,3.15
2023-04-10T22:56:58.057Z,2.83
2023-04-10T22:59:24.760Z,3.83
2023-04-10T23:01:51.882Z,2.80
2023-04-10T23:04:18.570Z,2.70
2023-04-10T23:06:45.249Z,2.88
2023-04-10T23:09:11.903Z,2.38
2023-04-10T23:11:38.740Z,2.70
2023-04-10T23:14:08.266Z,1.90
2023-04-10T23:16:35.033Z,2.17
2023-04-10T23:19:01.813Z,1.90
2023-04-10T23:21:28.465Z,1.92
2023-04-10T23:23:55.227Z,1.80
2023-04-10T23:26:21.783Z,1.20
2023-04-10T23:28:48.489Z,1.23
2023-04-10T23:31:15.609Z,1.55
2023-04-10T23:33:42.177Z,1.60
2023-04-10T23:36:09.156Z,1.63
2023-04-10T23:38:35.790Z,1.30
2023-04-10T23:41:02.347Z,1.70
2023-04-10T23:43:29.082Z,1.50
2023-04-10T23:45:55.694Z,1.50
2023-04-10T23:48:22.292Z,1.23
2023-04-10T23:50:48.891Z,1.00
2023-04-10T23:53:15.684Z,1.30
2023-04-10T23:55:42.728Z,1.25
2023-04-10T23:58:09.543Z,1.50
